Time;durP1;ratioP1;P1;durP2;ratioP2;P2;SDS_P1;SDS_P2;PMS_P1;PMS_P2;Temp;Humidity;BMP_temperature;BMP_pressure;BME280_temperature;BME280_humidity;BME280_pressure;Samples;Min_cycle;Max_cycle;Signal;HPM_P1;HPM_P2
2023/05/07 00:01:43;;;;;;;25.77;17.75;;;12.20;99.90;;;;;;5012872;28;20116;-49
2023/05/07 00:04:09;;;;;;;25.70;17.02;;;11.90;99.90;;;;;;5007912;28;20041;-51
2023/05/07 00:06:35;;;;;;;25.58;19.33;;;12.40;99.90;;;;;;4993373;28;20408;-52
2023/05/07 00:09:01;;;;;;;22.75;17.52;;;12.30;99.90;;;;;;4993145;28;20042;-51
2023/05/07 00:11:27;;;;;;;23.35;18.08;;;12.20;99.90;;;;;;4993320;28;20074;-52
2023/05/07 00:13:56;;;;;;;24.27;17.63;;;12.20;99.90;;;;;;4993365;28;20053;-53
2023/05/07 00:16:22;;;;;;;27.63;18.55;;;11.90;99.90;;;;;;4993558;28;20046;-52
2023/05/07 00:18:47;;;;;;;25.00;19.77;;;12.30;99.90;;;;;;4993009;28;20043;-52
2023/05/07 00:21:13;;;;;;;25.70;20.08;;;12.10;99.90;;;;;;4992888;28;20042;-52
2023/05/07 00:23:39;;;;;;;25.13;18.73;;;12.10;99.90;;;;;;4992938;28;20477;-53
2023/05/07 00:26:05;;;;;;;30.73;20.15;;;11.70;99.90;;;;;;4993455;28;20053;-51
2023/05/07 00:28:30;;;;;;;28.13;20.05;;;12.20;99.90;;;;;;4993118;28;20088;-52
2023/05/07 00:30:56;;;;;;;31.30;21.42;;;12.00;99.90;;;;;;4993028;28;20061;-52
2023/05/07 00:33:22;;;;;;;32.45;21.85;;;12.00;99.90;;;;;;4993582;28;20103;-54
2023/05/07 00:35:48;;;;;;;28.85;21.58;;;12.00;99.90;;;;;;4991844;28;20137;-54
2023/05/07 00:38:14;;;;;;;25.80;19.92;;;11.60;99.90;;;;;;4992891;28;20039;-50
2023/05/07 00:40:40;;;;;;;29.13;21.38;;;11.90;99.90;;;;;;4992892;28;20163;-52
2023/05/07 00:43:06;;;;;;;25.98;20.50;;;11.80;99.90;;;;;;4992760;28;20061;-52
2023/05/07 00:45:33;;;;;;;29.33;20.17;;;11.90;99.90;;;;;;4992431;28;20095;-52
2023/05/07 00:48:02;;;;;;;29.83;21.17;;;11.80;99.90;;;;;;4992658;28;20094;-51
2023/05/07 00:50:29;;;;;;;30.33;22.73;;;11.30;99.90;;;;;;4992323;28;20053;-52
2023/05/07 00:52:55;;;;;;;27.90;21.33;;;11.90;99.90;;;;;;4992332;28;20138;-49
2023/05/07 00:55:23;;;;;;;30.55;21.50;;;11.60;99.90;;;;;;4992417;28;20049;-51
2023/05/07 00:57:49;;;;;;;28.13;21.13;;;11.60;99.90;;;;;;4992661;28;20054;-51
2023/05/07 01:00:15;;;;;;;32.33;22.58;;;11.20;99.90;;;;;;4992408;28;20065;-49
2023/05/07 01:02:41;;;;;;;30.08;22.38;;;11.20;99.90;;;;;;4992537;28;20485;-51
2023/05/07 01:05:11;;;;;;;31.02;22.75;;;11.30;99.90;;;;;;5004668;28;20431;-53
2023/05/07 01:07:38;;;;;;;30.38;22.25;;;11.80;99.90;;;;;;5011580;28;20034;-52
2023/05/07 01:10:06;;;;;;;30.45;23.40;;;11.00;99.90;;;;;;5011399;28;20049;-49
2023/05/07 01:12:32;;;;;;;32.05;22.77;;;11.10;99.90;;;;;;5011619;28;20046;-50
2023/05/07 01:14:58;;;;;;;32.72;22.63;;;11.10;99.90;;;;;;5011426;28;20508;-52
2023/05/07 01:17:24;;;;;;;29.38;22.05;;;11.20;99.90;;;;;;5011555;28;20038;-51
2023/05/07 01:19:50;;;;;;;30.60;22.55;;;11.00;99.90;;;;;;5011384;28;20076;-50
2023/05/07 01:22:27;;;;;;;32.78;24.02;;;10.90;99.90;;;;;;5011265;28;20093;-53
2023/05/07 01:24:53;;;;;;;31.35;24.02;;;10.90;99.90;;;;;;5011804;28;20041;-50
2023/05/07 01:27:19;;;;;;;35.88;24.15;;;10.90;99.90;;;;;;5011293;28;20049;-51
2023/05/07 01:29:45;;;;;;;33.05;24.08;;;10.60;99.90;;;;;;5011491;28;20049;-50
2023/05/07 01:32:13;;;;;;;30.38;23.20;;;10.80;99.90;;;;;;5011602;28;20034;-51
2023/05/07 01:34:39;;;;;;;35.47;24.15;;;10.80;99.90;;;;;;5010798;28;20099;-51
2023/05/07 01:37:05;;;;;;;39.58;25.00;;;10.80;99.90;;;;;;5010749;28;20474;-48
2023/05/07 01:39:32;;;;;;;35.63;25.38;;;10.70;99.90;;;;;;5010256;28;20045;-52
2023/05/07 01:41:59;;;;;;;34.13;25.55;;;10.60;99.90;;;;;;5010234;28;20092;-51
2023/05/07 01:44:26;;;;;;;36.42;26.75;;;10.90;99.90;;;;;;5010251;28;20045;-53
2023/05/07 01:46:52;;;;;;;40.00;26.50;;;10.90;99.90;;;;;;5009983;28;20373;-51
2023/05/07 01:49:18;;;;;;;39.58;28.15;;;10.60;99.90;;;;;;5009973;28;20042;-52
2023/05/07 01:51:44;;;;;;;42.47;28.27;;;10.60;99.90;;;;;;5011032;28;20125;-51
2023/05/07 01:54:10;;;;;;;40.95;29.15;;;10.50;99.90;;;;;;5011000;28;20061;-49
2023/05/07 01:56:36;;;;;;;42.63;28.52;;;10.30;99.90;;;;;;5010697;28;20038;-51
2023/05/07 01:59:01;;;;;;;48.55;30.52;;;10.60;99.90;;;;;;5010858;28;20050;-49
2023/05/07 02:01:27;;;;;;;48.42;29.27;;;10.40;99.90;;;;;;5010685;28;20056;-51
2023/05/07 02:03:53;;;;;;;45.80;29.40;;;10.50;99.90;;;;;;5007789;28;20125;-48
2023/05/07 02:06:19;;;;;;;46.65;30.05;;;10.40;99.90;;;;;;5005802;28;20149;-49
2023/05/07 02:08:46;;;;;;;46.75;30.98;;;10.80;99.90;;;;;;4991245;28;20046;-50
2023/05/07 02:11:11;;;;;;;48.13;31.00;;;10.40;99.90;;;;;;4991145;28;20405;-50
2023/05/07 02:13:37;;;;;;;47.00;30.55;;;10.90;99.90;;;;;;4991355;28;20042;-50
2023/05/07 02:16:03;;;;;;;48.30;30.52;;;10.40;99.90;;;;;;4991353;28;20046;-50
2023/05/07 02:18:29;;;;;;;51.30;31.88;;;10.30;99.90;;;;;;4991575;28;20104;-50
2023/05/07 02:20:55;;;;;;;52.55;31.95;;;10.30;99.90;;;;;;4991447;28;20081;-48
2023/05/07 02:23:20;;;;;;;51.95;32.22;;;10.20;99.90;;;;;;4991065;28;20060;-50
2023/05/07 02:25:46;;;;;;;55.60;32.67;;;10.20;99.90;;;;;;4991001;28;20049;-48
2023/05/07 02:28:12;;;;;;;51.20;32.95;;;10.20;99.90;;;;;;4990966;28;20404;-50
2023/05/07 02:30:38;;;;;;;52.30;31.67;;;10.10;99.90;;;;;;4990523;28;20098;-52
2023/05/07 02:33:04;;;;;;;58.20;33.03;;;10.20;99.90;;;;;;4991030;28;20038;-48
2023/05/07 02:35:29;;;;;;;55.97;33.42;;;10.60;99.90;;;;;;4990795;28;20053;-52
2023/05/07 02:37:55;;;;;;;61.72;34.67;;;10.20;99.90;;;;;;4990745;28;20147;-51
2023/05/07 02:40:20;;;;;;;59.05;33.17;;;10.80;99.90;;;;;;4990554;28;20260;-49
2023/05/07 02:42:47;;;;;;;52.88;33.72;;;10.20;99.90;;;;;;4990927;28;20057;-51
2023/05/07 02:45:12;;;;;;;56.58;33.30;;;10.20;99.90;;;;;;4990867;28;20034;-48
2023/05/07 02:47:38;;;;;;;58.50;34.53;;;10.20;99.90;;;;;;4990729;28;20046;-51
2023/05/07 02:50:04;;;;;;;61.78;33.70;;;10.10;99.90;;;;;;4990702;28;20042;-52
2023/05/07 02:52:30;;;;;;;65.18;36.17;;;10.20;99.90;;;;;;4990778;28;20120;-47
2023/05/07 02:54:55;;;;;;;61.00;34.13;;;10.20;99.90;;;;;;4990928;28;20074;-48
2023/05/07 02:57:21;;;;;;;57.83;34.85;;;11.00;99.90;;;;;;4990869;28;20046;-48
2023/05/07 02:59:47;;;;;;;58.28;35.38;;;10.00;99.90;;;;;;4990827;28;20073;-49
2023/05/07 03:02:12;;;;;;;65.38;36.88;;;10.50;99.90;;;;;;4990275;28;20165;-49
2023/05/07 03:04:39;;;;;;;64.03;35.55;;;10.10;99.90;;;;;;4999160;28;20111;-52
2023/05/07 03:07:05;;;;;;;63.08;35.78;;;10.90;99.90;;;;;;5009997;28;20045;-47
2023/05/07 03:09:30;;;;;;;61.75;35.80;;;10.90;99.90;;;;;;5010077;28;20041;-48
2023/05/07 03:11:56;;;;;;;68.20;36.05;;;10.20;99.90;;;;;;5010404;28;20491;-49
2023/05/07 03:14:22;;;;;;;62.60;35.78;;;10.10;99.90;;;;;;5010335;28;20118;-49
2023/05/07 03:16:49;;;;;;;59.70;35.05;;;10.10;99.90;;;;;;5009986;28;20133;-50
2023/05/07 03:19:15;;;;;;;64.18;37.42;;;10.10;99.90;;;;;;5011406;28;20056;-49
2023/05/07 03:21:40;;;;;;;58.83;35.58;;;10.10;99.90;;;;;;5013725;28;20050;-51
2023/05/07 03:24:06;;;;;;;60.80;36.25;;;10.50;99.90;;;;;;5013809;28;20124;-51
2023/05/07 03:26:32;;;;;;;62.42;34.55;;;10.10;99.90;;;;;;5013624;28;20053;-48
2023/05/07 03:28:57;;;;;;;59.92;34.72;;;10.50;99.90;;;;;;5013670;28;20049;-51
2023/05/07 03:31:23;;;;;;;59.85;35.50;;;10.10;99.90;;;;;;5013380;28;20042;-51
2023/05/07 03:33:54;;;;;;;64.28;36.00;;;10.10;99.90;;;;;;5013657;28;20085;-51
2023/05/07 03:36:19;;;;;;;56.80;35.88;;;10.10;99.90;;;;;;5013577;28;20392;-51
2023/05/07 03:38:45;;;;;;;66.03;35.90;;;10.00;99.90;;;;;;5013565;28;20056;-50
2023/05/07 03:41:11;;;;;;;56.03;33.92;;;10.50;99.90;;;;;;5013303;28;20049;-53
2023/05/07 03:43:37;;;;;;;58.53;35.40;;;10.40;99.90;;;;;;5013483;28;20037;-52
2023/05/07 03:46:02;;;;;;;60.17;35.00;;;10.00;99.90;;;;;;5013441;28;20631;-51
2023/05/07 03:48:28;;;;;;;59.88;34.22;;;9.90;99.90;;;;;;5013299;28;20038;-49
2023/05/07 03:50:53;;;;;;;56.80;33.97;;;9.90;99.90;;;;;;5013304;28;20128;-50
2023/05/07 03:53:19;;;;;;;59.05;32.72;;;10.50;99.90;;;;;;5013219;28;20516;-49
2023/05/07 03:55:45;;;;;;;57.63;32.22;;;10.00;99.90;;;;;;5013353;28;20674;-49
2023/05/07 03:58:10;;;;;;;57.80;33.92;;;9.80;99.90;;;;;;5013112;28;20180;-50
2023/05/07 04:00:38;;;;;;;60.47;34.92;;;9.90;99.90;;;;;;5012998;28;20139;-47
2023/05/07 04:03:04;;;;;;;50.55;32.55;;;10.00;99.90;;;;;;5012933;28;20065;-49
2023/05/07 04:05:30;;;;;;;55.95;33.90;;;9.90;99.90;;;;;;4997122;28;20046;-51
2023/05/07 04:07:58;;;;;;;48.55;31.67;;;10.10;99.90;;;;;;4993140;28;20042;-52
2023/05/07 04:10:24;;;;;;;52.75;32.42;;;9.80;99.90;;;;;;4993490;28;20035;-50
2023/05/07 04:12:50;;;;;;;49.85;32.08;;;9.90;99.90;;;;;;4993327;28;20038;-48
2023/05/07 04:15:15;;;;;;;51.72;31.83;;;10.60;99.90;;;;;;4993294;28;20034;-51
2023/05/07 04:17:41;;;;;;;46.00;31.10;;;9.80;99.90;;;;;;4992961;28;20053;-51
2023/05/07 04:20:10;;;;;;;46.63;30.05;;;9.80;99.90;;;;;;4992986;28;20049;-50
2023/05/07 04:22:36;;;;;;;51.83;33.03;;;9.80;99.90;;;;;;4992926;28;20062;-51
2023/05/07 04:25:03;;;;;;;48.88;30.00;;;9.80;99.90;;;;;;4993088;28;20042;-51
2023/05/07 04:27:28;;;;;;;50.35;31.38;;;9.80;99.90;;;;;;4993143;28;20396;-51
2023/05/07 04:29:55;;;;;;;45.03;29.80;;;9.90;99.90;;;;;;4992808;28;20050;-51
2023/05/07 04:32:22;;;;;;;45.13;28.73;;;10.00;99.90;;;;;;4993338;28;20046;-48
2023/05/07 04:34:47;;;;;;;43.67;28.98;;;9.80;99.90;;;;;;4993253;28;20121;-50
2023/05/07 04:37:13;;;;;;;47.15;30.25;;;9.80;99.90;;;;;;4992889;28;20117;-51
2023/05/07 04:39:39;;;;;;;46.65;29.33;;;8.00;99.90;;;;;;4992774;28;20050;-51
2023/05/07 04:42:07;;;;;;;48.10;31.95;;;9.70;99.90;;;;;;4992512;28;20042;-50
2023/05/07 04:44:34;;;;;;;43.85;29.00;;;9.70;99.90;;;;;;4992913;28;20042;-51
2023/05/07 04:47:00;;;;;;;47.00;31.58;;;9.80;99.90;;;;;;4992747;28;20042;-49
2023/05/07 04:49:25;;;;;;;47.63;30.13;;;9.60;99.90;;;;;;4992873;28;20038;-48
2023/05/07 04:51:51;;;;;;;45.53;29.30;;;9.80;99.90;;;;;;4992839;28;20522;-50
2023/05/07 04:54:17;;;;;;;45.83;28.70;;;9.80;99.90;;;;;;4992600;28;20049;-51
2023/05/07 04:56:42;;;;;;;43.05;28.38;;;9.80;99.90;;;;;;4992331;28;20038;-53
2023/05/07 04:59:08;;;;;;;41.90;27.90;;;9.80;99.90;;;;;;4992455;28;20042;-52
2023/05/07 05:01:34;;;;;;;40.70;27.75;;;9.70;99.90;;;;;;4992122;28;20053;-52
2023/05/07 05:04:00;;;;;;;41.38;27.35;;;10.00;99.90;;;;;;4995633;28;20052;-52
2023/05/07 05:06:26;;;;;;;40.42;28.08;;;9.90;99.90;;;;;;5012037;28;20042;-51
2023/05/07 05:08:51;;;;;;;37.33;27.60;;;10.10;99.90;;;;;;5011706;28;20369;-52
2023/05/07 05:11:17;;;;;;;41.83;28.15;;;9.80;99.90;;;;;;5011479;28;20080;-51
2023/05/07 05:13:43;;;;;;;40.15;27.30;;;9.90;99.90;;;;;;5011446;28;20045;-52
2023/05/07 05:16:08;;;;;;;42.70;28.15;;;9.90;99.90;;;;;;5011838;28;20042;-53
2023/05/07 05:18:34;;;;;;;40.35;27.27;;;9.90;99.90;;;;;;5011680;28;20214;-50
2023/05/07 05:21:00;;;;;;;40.25;27.67;;;9.90;99.90;;;;;;5011495;28;20037;-53
2023/05/07 05:23:26;;;;;;;38.78;26.15;;;9.90;99.90;;;;;;5011180;28;20054;-50
2023/05/07 05:25:57;;;;;;;35.53;24.60;;;9.90;99.90;;;;;;5011329;28;20050;-52
2023/05/07 05:28:23;;;;;;;38.70;27.10;;;9.90;99.90;;;;;;5011648;28;20037;-51
2023/05/07 05:30:49;;;;;;;36.88;27.55;;;10.10;99.90;;;;;;5011626;28;20042;-52
2023/05/07 05:33:15;;;;;;;38.55;25.95;;;10.00;99.90;;;;;;5011297;28;20038;-50
2023/05/07 05:35:41;;;;;;;39.85;26.88;;;10.00;99.90;;;;;;5011594;28;20714;-52
2023/05/07 05:38:07;;;;;;;39.55;26.85;;;10.00;99.90;;;;;;5011305;28;20046;-53
2023/05/07 05:40:33;;;;;;;41.55;27.50;;;9.90;99.90;;;;;;5011313;28;20042;-49
2023/05/07 05:42:59;;;;;;;37.40;26.60;;;10.00;99.90;;;;;;5009357;28;20095;-50
2023/05/07 05:45:25;;;;;;;37.40;25.35;;;10.00;99.90;;;;;;5011467;28;20053;-51
2023/05/07 05:47:50;;;;;;;36.55;26.70;;;10.10;99.90;;;;;;5010239;28;20042;-52
2023/05/07 05:50:16;;;;;;;37.15;26.73;;;10.10;99.90;;;;;;5011361;28;20045;-51
2023/05/07 05:52:42;;;;;;;36.42;25.98;;;10.10;99.90;;;;;;5011318;28;20081;-53
2023/05/07 05:55:08;;;;;;;34.45;26.50;;;10.10;99.90;;;;;;5011467;28;20278;-51
2023/05/07 05:57:34;;;;;;;35.65;25.45;;;10.10;99.90;;;;;;5011268;28;20042;-52
2023/05/07 06:00:01;;;;;;;34.15;25.13;;;10.10;99.90;;;;;;5010999;28;20042;-53
2023/05/07 06:02:26;;;;;;;35.40;24.75;;;10.10;99.90;;;;;;5010901;28;20400;-54
2023/05/07 06:04:52;;;;;;;33.42;25.10;;;10.80;99.90;;;;;;4999861;28;20049;-54
2023/05/07 06:07:18;;;;;;;34.17;25.33;;;10.20;99.90;;;;;;4991099;28;20041;-52
2023/05/07 06:09:44;;;;;;;32.83;24.10;;;10.60;99.90;;;;;;4990988;28;20034;-52
2023/05/07 06:12:09;;;;;;;34.30;26.20;;;10.20;99.90;;;;;;4990992;28;20038;-52
2023/05/07 06:14:35;;;;;;;35.72;24.60;;;10.30;99.90;;;;;;4990674;28;20046;-53
2023/05/07 06:17:01;;;;;;;35.72;24.52;;;10.30;99.90;;;;;;4991228;28;20050;-52
2023/05/07 06:19:27;;;;;;;32.10;23.83;;;10.30;99.90;;;;;;4991029;28;20508;-51
2023/05/07 06:21:54;;;;;;;36.50;24.10;;;10.40;99.90;;;;;;4990861;28;20062;-53
2023/05/07 06:24:19;;;;;;;35.55;26.85;;;10.40;99.90;;;;;;4990816;28;20050;-53
2023/05/07 06:26:45;;;;;;;35.30;25.27;;;10.40;99.90;;;;;;4990849;28;20042;-53
2023/05/07 06:29:11;;;;;;;31.67;25.38;;;10.80;99.90;;;;;;4990947;28;20044;-54
2023/05/07 06:31:36;;;;;;;34.55;25.52;;;10.50;99.90;;;;;;4990799;28;20081;-54
2023/05/07 06:34:02;;;;;;;38.03;24.48;;;10.30;99.90;;;;;;4990489;28;20050;-51
2023/05/07 06:36:28;;;;;;;31.65;24.52;;;10.40;99.90;;;;;;4990194;28;20046;-53
2023/05/07 06:38:54;;;;;;;33.72;24.00;;;10.50;99.90;;;;;;4990555;28;20491;-52
2023/05/07 06:41:20;;;;;;;31.85;24.58;;;10.50;99.90;;;;;;4990252;28;20046;-52
2023/05/07 06:43:46;;;;;;;34.03;24.55;;;10.30;99.90;;;;;;4990559;28;20045;-50
2023/05/07 06:46:11;;;;;;;34.03;24.60;;;10.50;99.90;;;;;;4990381;28;20074;-53
2023/05/07 06:48:37;;;;;;;34.05;25.88;;;10.60;99.90;;;;;;4990298;28;20043;-52
2023/05/07 06:51:03;;;;;;;33.25;25.30;;;10.40;99.90;;;;;;4989022;28;20057;-52
2023/05/07 06:53:30;;;;;;;33.50;24.25;;;10.40;99.90;;;;;;4992078;28;20133;-50
2023/05/07 06:55:56;;;;;;;33.13;24.90;;;10.40;99.90;;;;;;4994534;28;20424;-54
2023/05/07 06:58:22;;;;;;;33.85;26.02;;;10.30;99.90;;;;;;4994531;28;20050;-53
2023/05/07 07:00:48;;;;;;;35.85;25.42;;;10.30;99.90;;;;;;4994187;28;20707;-53
2023/05/07 07:03:14;;;;;;;31.60;24.35;;;10.40;99.90;;;;;;4994259;28;20073;-54
2023/05/07 07:05:43;;;;;;;37.05;25.27;;;10.30;99.90;;;;;;5011069;28;20057;-54
2023/05/07 07:08:10;;;;;;;35.72;25.00;;;10.40;99.90;;;;;;5013872;28;20046;-53
2023/05/07 07:10:35;;;;;;;38.90;27.20;;;10.60;99.90;;;;;;5012729;28;20081;-54
2023/05/07 07:13:01;;;;;;;33.05;24.80;;;10.40;99.90;;;;;;5014365;28;20646;-56
2023/05/07 07:15:27;;;;;;;33.35;24.95;;;10.40;99.90;;;;;;5014366;28;20438;-54
2023/05/07 07:17:53;;;;;;;34.60;24.42;;;11.10;99.90;;;;;;5014430;28;20470;-52
2023/05/07 07:20:18;;;;;;;32.15;24.17;;;10.50;99.90;;;;;;5013396;28;20048;-53
2023/05/07 07:22:44;;;;;;;35.47;24.60;;;10.40;99.90;;;;;;5013732;28;20231;-53
2023/05/07 07:25:11;;;;;;;33.15;24.50;;;10.60;99.90;;;;;;5012561;28;20049;-54
2023/05/07 07:27:37;;;;;;;34.70;25.23;;;10.60;99.90;;;;;;5013750;28;20076;-54
2023/05/07 07:30:03;;;;;;;37.92;26.08;;;10.50;99.90;;;;;;5013417;28;20515;-55
2023/05/07 07:32:28;;;;;;;40.85;27.42;;;10.70;99.90;;;;;;5013273;28;20503;-54
2023/05/07 07:34:54;;;;;;;36.30;26.40;;;10.80;99.90;;;;;;5014083;28;20050;-55
2023/05/07 07:37:20;;;;;;;33.90;24.70;;;10.90;99.90;;;;;;5013601;28;20479;-54
2023/05/07 07:39:45;;;;;;;36.67;25.52;;;11.00;99.90;;;;;;5013723;28;20042;-55
2023/05/07 07:42:11;;;;;;;35.42;26.38;;;11.60;99.90;;;;;;5013525;28;20049;-55
2023/05/07 07:44:39;;;;;;;35.55;26.55;;;11.20;99.90;;;;;;5013605;28;20042;-55
2023/05/07 07:47:05;;;;;;;36.33;24.92;;;11.20;99.90;;;;;;5013081;28;20468;-54
2023/05/07 07:49:30;;;;;;;36.35;26.00;;;11.40;99.90;;;;;;5012411;28;20120;-55
2023/05/07 07:51:58;;;;;;;36.17;25.45;;;11.30;99.90;;;;;;5012645;28;20127;-55
2023/05/07 07:54:24;;;;;;;33.03;25.60;;;11.20;99.90;;;;;;5012228;28;20492;-55
2023/05/07 07:56:49;;;;;;;38.20;25.17;;;11.30;99.90;;;;;;5011988;28;20041;-54
2023/05/07 07:59:18;;;;;;;35.10;25.20;;;11.30;99.90;;;;;;5012330;28;20042;-55
2023/05/07 08:01:44;;;;;;;36.00;25.70;;;11.20;99.90;;;;;;5012363;28;20071;-53
2023/05/07 08:04:10;;;;;;;33.33;24.10;;;11.20;99.90;;;;;;5006574;28;20026;-55
2023/05/07 08:06:36;;;;;;;30.90;24.00;;;11.40;99.90;;;;;;4991975;28;20042;-55
2023/05/07 08:09:02;;;;;;;32.00;23.67;;;11.20;99.90;;;;;;4992862;28;20053;-52
2023/05/07 08:11:28;;;;;;;32.15;24.05;;;11.10;99.90;;;;;;4992529;28;20053;-53
2023/05/07 08:13:54;;;;;;;32.83;24.83;;;11.20;99.90;;;;;;4992527;28;20477;-53
2023/05/07 08:16:21;;;;;;;34.72;25.77;;;11.30;99.90;;;;;;4992690;28;20484;-54
2023/05/07 08:18:46;;;;;;;31.95;25.95;;;11.50;99.90;;;;;;4992723;28;20050;-52
2023/05/07 08:21:12;;;;;;;30.17;23.15;;;11.50;99.90;;;;;;4993206;28;20128;-53
2023/05/07 08:23:38;;;;;;;30.92;24.27;;;11.50;99.90;;;;;;4992857;28;20050;-54
2023/05/07 08:26:03;;;;;;;32.20;23.42;;;11.60;99.90;;;;;;4992985;28;20128;-53
2023/05/07 08:28:29;;;;;;;28.98;22.00;;;11.70;99.90;;;;;;4992229;28;20038;-54
2023/05/07 08:30:56;;;;;;;30.65;22.63;;;11.80;99.90;;;;;;4991492;28;20077;-53
2023/05/07 08:33:22;;;;;;;26.58;22.17;;;11.80;99.90;;;;;;4990356;28;20512;-51
2023/05/07 08:35:48;;;;;;;27.08;22.38;;;11.90;99.90;;;;;;4991999;28;20074;-54
2023/05/07 08:38:13;;;;;;;28.00;21.42;;;12.00;99.90;;;;;;4992581;28;20385;-51
2023/05/07 08:40:40;;;;;;;29.90;23.23;;;12.20;99.90;;;;;;4992859;28;20471;-53
2023/05/07 08:43:07;;;;;;;29.10;21.90;;;12.10;99.90;;;;;;4991493;28;20049;-49
2023/05/07 08:45:37;;;;;;;29.55;23.35;;;12.60;99.90;;;;;;4992850;28;20150;-52
2023/05/07 08:48:14;;;;;;;25.05;21.95;;;12.40;99.90;;;;;;4992677;28;20062;-53
2023/05/07 08:50:39;;;;;;;28.05;21.05;;;12.50;99.90;;;;;;5007980;28;20049;-54
2023/05/07 08:53:05;;;;;;;26.60;20.88;;;12.70;99.90;;;;;;4992970;28;20054;-53
2023/05/07 08:55:31;;;;;;;26.55;21.85;;;12.80;99.90;;;;;;4993087;28;20042;-54
2023/05/07 08:57:57;;;;;;;26.02;21.38;;;12.80;99.90;;;;;;4992793;28;20042;-53
2023/05/07 09:00:22;;;;;;;26.05;21.02;;;12.90;99.90;;;;;;4992739;28;20447;-53
2023/05/07 09:02:48;;;;;;;22.83;19.70;;;13.00;99.90;;;;;;4991489;28;20050;-53
2023/05/07 09:05:14;;;;;;;30.98;20.35;;;13.20;99.90;;;;;;5005933;28;20060;-53
2023/05/07 09:07:40;;;;;;;24.13;19.42;;;13.30;99.90;;;;;;5012517;28;20066;-54
2023/05/07 09:10:06;;;;;;;24.67;20.10;;;13.40;99.90;;;;;;5011252;28;20126;-54
2023/05/07 09:12:32;;;;;;;22.00;19.58;;;13.40;99.90;;;;;;5011371;28;20053;-52
2023/05/07 09:14:59;;;;;;;24.10;20.67;;;13.50;99.90;;;;;;5010859;28;20133;-53
2023/05/07 09:17:25;;;;;;;25.42;19.92;;;13.50;99.90;;;;;;5011524;28;20474;-53
2023/05/07 09:19:51;;;;;;;26.40;20.00;;;13.60;99.90;;;;;;5011822;28;20124;-52
2023/05/07 09:22:16;;;;;;;23.25;19.25;;;13.80;99.90;;;;;;5011606;28;20049;-54
2023/05/07 09:24:48;;;;;;;25.70;20.80;;;14.00;99.90;;;;;;5011748;28;20045;-54
2023/05/07 09:27:14;;;;;;;22.80;18.90;;;14.00;99.90;;;;;;5009487;28;20049;-52
2023/05/07 09:29:40;;;;;;;22.45;18.73;;;14.00;99.90;;;;;;5010802;28;20480;-54
2023/05/07 09:32:07;;;;;;;25.23;20.40;;;14.00;99.90;;;;;;5010415;28;20057;-53
2023/05/07 09:34:34;;;;;;;21.50;18.92;;;14.00;99.90;;;;;;5010606;28;20057;-54
2023/05/07 09:37:04;;;;;;;22.48;18.45;;;14.00;99.90;;;;;;4993042;28;20084;-52
2023/05/07 09:39:59;;;;;;;22.17;18.77;;;14.10;99.90;;;;;;5010148;28;20121;-53
2023/05/07 09:42:26;;;;;;;20.92;17.58;;;14.10;99.90;;;;;;5005228;28;20053;-53
2023/05/07 09:44:52;;;;;;;22.02;18.15;;;14.10;99.90;;;;;;5010449;28;20042;-51
2023/05/07 09:47:24;;;;;;;24.65;19.10;;;14.20;99.90;;;;;;5010739;28;20037;-54
2023/05/07 09:49:55;;;;;;;20.58;17.42;;;14.30;99.90;;;;;;5011019;28;20050;-53
2023/05/07 09:52:21;;;;;;;22.00;18.85;;;14.30;99.90;;;;;;5011186;28;20042;-53
2023/05/07 09:54:49;;;;;;;20.75;17.98;;;14.30;99.90;;;;;;5011283;28;20041;-55
2023/05/07 09:57:16;;;;;;;27.10;19.13;;;14.20;99.90;;;;;;5011187;28;20045;-54
2023/05/07 09:59:43;;;;;;;19.48;17.10;;;14.20;99.90;;;;;;5011279;28;20046;-53
2023/05/07 10:02:10;;;;;;;24.55;18.45;;;14.60;99.90;;;;;;5010900;28;20052;-53
2023/05/07 10:04:37;;;;;;;20.15;16.33;;;14.40;99.90;;;;;;5002601;28;20045;-54
2023/05/07 10:07:04;;;;;;;19.55;17.40;;;14.50;99.90;;;;;;4991441;28;20042;-53
2023/05/07 10:09:30;;;;;;;21.65;16.92;;;14.40;99.90;;;;;;4990429;28;20736;-54
2023/05/07 10:11:57;;;;;;;20.80;17.35;;;14.50;99.90;;;;;;4991666;28;20049;-54
2023/05/07 10:14:23;;;;;;;19.17;16.35;;;14.50;99.90;;;;;;4991398;28;20127;-54
2023/05/07 10:16:49;;;;;;;20.33;17.75;;;14.70;99.90;;;;;;4990942;28;20060;-54
2023/05/07 10:19:15;;;;;;;20.33;16.20;;;14.60;99.90;;;;;;4990797;28;20058;-53
2023/05/07 10:21:51;;;;;;;19.08;16.70;;;14.60;99.90;;;;;;4990336;28;20043;-54
2023/05/07 10:24:28;;;;;;;20.85;17.65;;;14.70;99.90;;;;;;4991044;28;20054;-54
2023/05/07 10:26:56;;;;;;;22.63;17.98;;;14.80;99.90;;;;;;4990633;28;20047;-55
2023/05/07 10:29:42;;;;;;;19.25;16.67;;;14.80;99.90;;;;;;4989427;28;20049;-54
2023/05/07 10:32:29;;;;;;;19.10;17.10;;;14.90;99.90;;;;;;4990614;28;20050;-54
2023/05/07 10:34:58;;;;;;;20.73;18.42;;;14.90;99.90;;;;;;4990970;28;20050;-54
2023/05/07 10:37:24;;;;;;;17.95;15.98;;;15.00;99.90;;;;;;4990874;28;20081;-54
2023/05/07 10:39:51;;;;;;;23.63;18.17;;;15.30;99.90;;;;;;4990965;28;20050;-55
2023/05/07 10:42:16;;;;;;;20.00;16.75;;;15.40;99.90;;;;;;4990657;28;20552;-54
2023/05/07 10:44:42;;;;;;;18.65;16.73;;;15.50;99.90;;;;;;4990900;28;20129;-55
2023/05/07 10:47:10;;;;;;;18.48;16.40;;;15.40;99.90;;;;;;4990806;28;20034;-55
2023/05/07 10:49:56;;;;;;;17.17;14.88;;;15.40;99.90;;;;;;4990882;28;20042;-55
2023/05/07 10:52:25;;;;;;;17.50;15.63;;;15.40;99.90;;;;;;4990611;28;20050;-52
2023/05/07 10:55:25;;;;;;;21.50;17.48;;;15.40;99.90;;;;;;4990533;28;20046;-52
2023/05/07 10:57:50;;;;;;;17.25;15.30;;;15.30;99.90;;;;;;4991015;28;20404;-54
2023/05/07 11:00:25;;;;;;;19.67;16.70;;;15.40;99.90;;;;;;4990790;28;20046;-53
2023/05/07 11:03:00;;;;;;;20.08;17.83;;;15.50;99.90;;;;;;4989915;28;20489;-54
2023/05/07 11:05:30;;;;;;;19.75;16.50;;;15.50;99.90;;;;;;5003671;28;20099;-54
2023/05/07 11:08:01;;;;;;;18.85;16.13;;;15.50;99.90;;;;;;5009289;28;20045;-55
2023/05/07 11:10:46;;;;;;;18.75;16.75;;;15.50;99.90;;;;;;5010247;28;20075;-56
2023/05/07 11:13:12;;;;;;;18.67;15.30;;;15.50;99.90;;;;;;5005395;28;20046;-56
2023/05/07 11:15:44;;;;;;;17.77;15.98;;;15.50;99.90;;;;;;5010307;28;20482;-48
2023/05/07 11:18:11;;;;;;;20.05;17.90;;;15.60;99.90;;;;;;5010310;28;20085;-58
2023/05/07 11:20:50;;;;;;;20.20;18.17;;;15.60;99.90;;;;;;4305108;28;10000751;-58
2023/05/07 11:23:33;;;;;;;19.60;17.55;;;15.70;99.90;;;;;;4989220;28;20305;-57
2023/05/07 11:26:10;;;;;;;19.25;17.30;;;15.80;99.90;;;;;;4989396;28;20138;-57
2023/05/07 11:28:38;;;;;;;17.98;16.13;;;16.00;99.90;;;;;;4989493;28;20042;-57
2023/05/07 11:31:04;;;;;;;19.20;17.20;;;16.10;99.90;;;;;;4988452;28;20047;-58
2023/05/07 11:33:33;;;;;;;18.23;16.38;;;16.10;99.90;;;;;;4987984;28;20050;-58
2023/05/07 11:36:01;;;;;;;19.55;16.90;;;16.10;99.90;;;;;;4988526;28;20061;-57
2023/05/07 11:38:29;;;;;;;18.30;15.85;;;16.10;99.90;;;;;;4988206;28;20055;-58
2023/05/07 11:41:00;;;;;;;17.60;15.80;;;16.10;99.90;;;;;;4990240;28;20042;-58
2023/05/07 11:43:26;;;;;;;17.38;15.57;;;16.10;99.90;;;;;;4991789;28;20082;-57
2023/05/07 11:45:52;;;;;;;17.10;15.27;;;16.10;99.90;;;;;;4992789;28;20038;-58
2023/05/07 11:48:18;;;;;;;17.50;15.65;;;16.10;99.90;;;;;;4992749;28;20037;-58
2023/05/07 11:50:59;;;;;;;17.15;15.35;;;16.10;99.90;;;;;;4992869;28;20087;-58
2023/05/07 11:53:26;;;;;;;16.98;15.27;;;16.10;99.90;;;;;;4992375;28;20046;-58
2023/05/07 11:55:58;;;;;;;17.75;15.88;;;16.00;99.90;;;;;;4992670;28;20050;-59
2023/05/07 11:58:25;;;;;;;20.25;15.68;;;16.00;99.90;;;;;;4992790;28;20042;-58
2023/05/07 12:00:54;;;;;;;17.60;15.80;;;16.00;99.90;;;;;;5007501;28;20047;-58
2023/05/07 12:03:20;;;;;;;17.45;15.75;;;16.10;99.90;;;;;;4992595;28;20153;-57
2023/05/07 12:05:47;;;;;;;17.40;15.40;;;16.10;99.90;;;;;;5010079;28;20045;-58
2023/05/07 12:08:16;;;;;;;17.15;15.35;;;16.20;99.90;;;;;;5012362;28;20495;-57
2023/05/07 12:10:47;;;;;;;17.58;15.85;;;16.20;99.90;;;;;;5011982;28;20052;-58
2023/05/07 12:13:20;;;;;;;16.80;15.10;;;16.30;99.90;;;;;;5011949;28;20041;-58
2023/05/07 12:15:46;;;;;;;19.20;15.55;;;16.30;99.90;;;;;;5010442;28;20042;-58
2023/05/07 12:18:13;;;;;;;15.82;14.15;;;16.20;99.90;;;;;;5011548;28;20391;-58
2023/05/07 12:20:39;;;;;;;18.02;15.57;;;16.20;99.90;;;;;;5011460;28;20583;-58
2023/05/07 12:23:05;;;;;;;16.85;15.15;;;16.30;99.90;;;;;;5011465;28;20500;-58
2023/05/07 12:25:34;;;;;;;17.13;14.35;;;16.20;99.90;;;;;;5011547;28;20503;-58
2023/05/07 12:28:01;;;;;;;18.42;16.67;;;16.20;99.90;;;;;;5011970;28;20077;-58